Time;durP1;ratioP1;P1;durP2;ratioP2;P2;SDS_P1;SDS_P2;PMS_P1;PMS_P2;Temp;Humidity;BMP_temperature;BMP_pressure;BME280_temperature;BME280_humidity;BME280_pressure;Samples;Min_cycle;Max_cycle;Signal;HPM_P1;HPM_P2
2021/07/25 00:00:07;;;;;;;16.07;10.73;;;;;;;20.35;60.26;100464.66;5074717;28;20256;-68
2021/07/25 00:02:34;;;;;;;12.87;9.47;;;;;;;20.32;60.36;100465.81;5073420;28;20531;-68
2021/07/25 00:04:59;;;;;;;13.80;9.60;;;;;;;20.31;60.27;100453.28;5073256;28;20195;-68
2021/07/25 00:07:25;;;;;;;14.13;9.80;;;;;;;20.39;59.87;100457.91;5075101;28;20198;-69
2021/07/25 00:09:50;;;;;;;15.40;10.10;;;;;;;20.26;60.32;100451.03;5074431;28;20198;-68
2021/07/25 00:12:15;;;;;;;13.63;9.27;;;;;;;20.39;59.55;100445.22;5074425;28;20175;-69
2021/07/25 00:14:41;;;;;;;14.47;10.10;;;;;;;20.40;59.40;100436.13;5075112;28;20183;-68
2021/07/25 00:17:06;;;;;;;16.63;10.03;;;;;;;20.44;59.45;100442.06;5074272;28;20651;-68
2021/07/25 00:19:31;;;;;;;14.20;9.80;;;;;;;20.48;58.89;100441.63;5074139;28;20275;-69
2021/07/25 00:21:57;;;;;;;13.73;9.30;;;;;;;20.53;58.92;100436.59;5056321;28;20232;-68
2021/07/25 00:24:29;;;;;;;15.47;9.53;;;;;;;20.56;58.65;100432.72;5074069;28;20174;-69
2021/07/25 00:26:56;;;;;;;14.40;9.10;;;;;;;20.58;58.35;100428.00;5074221;28;20636;-69
2021/07/25 00:29:22;;;;;;;11.13;9.43;;;;;;;20.64;58.17;100426.53;5073122;28;20183;-69
2021/07/25 00:31:48;;;;;;;13.80;9.07;;;;;;;20.70;57.84;100423.19;5072739;28;20171;-68
2021/07/25 00:34:13;;;;;;;16.87;9.33;;;;;;;20.75;57.43;100424.41;5073862;28;20224;-69
2021/07/25 00:36:39;;;;;;;17.07;9.50;;;;;;;20.74;57.84;100420.00;5073718;28;20191;-69
2021/07/25 00:39:07;;;;;;;13.77;9.23;;;;;;;20.78;57.45;100426.81;5073032;28;20194;-69
2021/07/25 00:41:33;;;;;;;18.17;8.73;;;;;;;20.77;57.67;100422.41;5074144;28;20258;-69
2021/07/25 00:43:59;;;;;;;12.07;9.33;;;;;;;20.83;57.45;100427.22;5074049;28;20662;-68
2021/07/25 00:46:24;;;;;;;15.67;10.00;;;;;;;20.89;57.20;100417.59;5073990;28;20163;-69
2021/07/25 00:48:50;;;;;;;11.77;9.57;;;;;;;20.88;57.23;100414.03;5072223;28;20198;-68
2021/07/25 00:51:15;;;;;;;17.23;9.87;;;;;;;20.92;57.16;100420.00;5072552;28;20170;-68
2021/07/25 00:53:42;;;;;;;14.27;10.00;;;;;;;20.93;56.98;100413.56;5073976;28;20182;-68
2021/07/25 00:56:09;;;;;;;14.33;9.47;;;;;;;20.90;57.10;100406.59;5073523;28;20252;-68
2021/07/25 00:58:41;;;;;;;16.57;9.60;;;;;;;20.89;57.35;100404.88;5073731;28;20556;-68
2021/07/25 01:01:07;;;;;;;13.03;8.90;;;;;;;20.83;57.44;100399.25;5072526;28;20167;-68
2021/07/25 01:03:50;;;;;;;15.10;9.53;;;;;;;20.82;57.22;100395.69;5073680;28;20182;-69
2021/07/25 01:06:47;;;;;;;13.10;9.40;;;;;;;20.79;57.52;100392.41;5073709;28;20205;-68
2021/07/25 01:09:15;;;;;;;14.30;10.03;;;;;;;20.71;57.76;100384.22;5072490;28;20232;-69
2021/07/25 01:11:47;;;;;;;11.77;8.67;;;;;;;20.72;57.66;100384.06;5075078;28;20179;-68
2021/07/25 01:14:17;;;;;;;12.40;9.20;;;;;;;20.72;57.70;100386.75;5073958;28;20155;-69
2021/07/25 01:16:43;;;;;;;12.13;8.43;;;;;;;20.69;57.75;100378.09;5072605;28;20596;-69
2021/07/25 01:19:08;;;;;;;12.63;8.70;;;;;;;20.63;58.08;100373.31;5073452;28;20187;-69
2021/07/25 01:21:34;;;;;;;18.13;9.80;;;;;;;20.56;58.19;100382.06;5073247;28;20678;-69
2021/07/25 01:23:59;;;;;;;12.10;9.63;;;;;;;20.59;58.16;100372.78;5073186;28;20232;-68
2021/07/25 01:26:28;;;;;;;11.83;9.53;;;;;;;20.53;58.35;100371.53;5073133;28;20170;-68
2021/07/25 01:28:55;;;;;;;17.83;9.73;;;;;;;20.51;58.38;100373.56;5071837;28;20735;-68
2021/07/25 01:31:30;;;;;;;11.90;9.27;;;;;;;20.59;58.13;100372.78;5071771;28;20175;-67
2021/07/25 01:33:58;;;;;;;11.87;9.43;;;;;;;20.53;58.07;100373.41;5071891;28;20293;-68
2021/07/25 01:36:23;;;;;;;14.77;9.57;;;;;;;20.54;58.14;100375.97;5072057;28;20277;-68
2021/07/25 01:38:52;;;;;;;19.57;8.77;;;;;;;20.49;58.42;100369.31;5054908;28;20519;-67
2021/07/25 01:41:17;;;;;;;13.17;9.30;;;;;;;20.50;58.30;100382.69;5072225;28;20175;-68
2021/07/25 01:43:46;;;;;;;14.77;9.70;;;;;;;20.42;58.60;100374.47;5055028;28;20753;-68
2021/07/25 01:46:11;;;;;;;12.40;9.87;;;;;;;20.37;58.66;100381.34;5071712;28;20193;-68
2021/07/25 01:48:37;;;;;;;13.23;8.97;;;;;;;20.50;58.30;100389.97;5072611;28;20674;-69
2021/07/25 01:51:02;;;;;;;18.37;10.17;;;;;;;20.47;58.44;100385.72;5079560;28;20175;-69
2021/07/25 01:53:27;;;;;;;12.43;9.00;;;;;;;20.38;58.94;100380.31;5078444;28;20178;-68
2021/07/25 01:55:53;;;;;;;12.63;9.03;;;;;;;20.28;59.32;100377.69;5078599;28;20193;-69
2021/07/25 01:58:18;;;;;;;16.63;9.90;;;;;;;20.22;59.54;100381.88;5078370;28;20213;-69
2021/07/25 02:00:44;;;;;;;19.07;9.97;;;;;;;20.15;59.58;100379.94;5078392;28;20531;-69
2021/07/25 02:03:09;;;;;;;16.20;8.97;;;;;;;20.11;59.91;100386.69;5078133;28;20167;-69
2021/07/25 02:05:35;;;;;;;17.00;9.60;;;;;;;20.08;59.97;100382.44;5079565;28;20200;-68
2021/07/25 02:08:01;;;;;;;10.53;8.27;;;;;;;20.06;60.17;100389.81;5078102;28;20585;-69
2021/07/25 02:10:26;;;;;;;14.77;9.53;;;;;;;20.02;60.33;100399.25;5079526;28;20216;-68
2021/07/25 02:12:51;;;;;;;17.13;9.50;;;;;;;20.01;60.31;100385.88;5079545;28;20175;-69
2021/07/25 02:15:16;;;;;;;19.90;9.77;;;;;;;19.97;60.42;100390.75;5079675;28;20293;-68
2021/07/25 02:17:42;;;;;;;12.70;8.87;;;;;;;19.87;60.83;100387.25;5078387;28;20175;-69
2021/07/25 02:20:07;;;;;;;10.93;9.07;;;;;;;19.66;61.59;100390.19;5078053;28;20202;-69
2021/07/25 02:22:33;;;;;;;11.90;9.17;;;;;;;19.60;61.83;100382.69;5078067;28;20654;-69
2021/07/25 02:24:58;;;;;;;15.10;9.57;;;;;;;19.56;61.99;100384.84;5079155;28;20175;-69
2021/07/25 02:27:23;;;;;;;21.77;9.70;;;;;;;19.61;61.66;100374.41;5079433;28;20246;-69
2021/07/25 02:29:49;;;;;;;14.17;8.80;;;;;;;19.61;61.69;100384.38;5078043;28;20190;-68
2021/07/25 02:32:14;;;;;;;13.80;9.53;;;;;;;19.62;61.60;100386.94;5079185;28;20167;-68
2021/07/25 02:34:41;;;;;;;10.97;9.07;;;;;;;19.56;61.87;100389.41;5079583;28;20186;-68
2021/07/25 02:37:10;;;;;;;15.00;9.47;;;;;;;19.52;62.12;100378.00;5078447;28;20266;-68
2021/07/25 02:39:35;;;;;;;16.53;9.53;;;;;;;19.52;62.12;100382.56;5077953;28;20197;-68
2021/07/25 02:42:00;;;;;;;12.00;9.50;;;;;;;19.40;62.33;100381.91;5079074;28;20171;-68
2021/07/25 02:44:26;;;;;;;14.20;9.30;;;;;;;19.46;62.22;100380.44;5079136;28;20179;-68
2021/07/25 02:46:51;;;;;;;15.77;9.90;;;;;;;19.37;62.53;100374.09;5079200;28;20666;-68
2021/07/25 02:49:16;;;;;;;13.83;9.77;;;;;;;19.33;62.81;100376.22;5079035;28;20199;-68
2021/07/25 02:51:41;;;;;;;17.47;9.47;;;;;;;19.20;63.33;100364.88;5080093;28;20179;-69
2021/07/25 02:54:07;;;;;;;13.70;9.70;;;;;;;19.17;63.44;100370.56;5079789;28;20539;-69
2021/07/25 02:56:32;;;;;;;12.57;9.60;;;;;;;19.10;63.63;100372.16;5089266;28;20202;-69
2021/07/25 02:58:57;;;;;;;13.23;9.63;;;;;;;19.09;63.69;100377.72;5088994;28;20202;-69
2021/07/25 03:01:23;;;;;;;16.20;9.57;;;;;;;18.98;63.90;100366.09;5076549;28;20170;-69
2021/07/25 03:03:48;;;;;;;11.33;9.10;;;;;;;18.99;63.98;100372.34;5075849;28;20201;-69
2021/07/25 03:06:13;;;;;;;14.53;9.23;;;;;;;19.07;63.62;100371.63;5075498;28;20171;-69
2021/07/25 03:08:38;;;;;;;15.17;9.93;;;;;;;19.02;63.78;100380.19;5075837;28;20236;-68
2021/07/25 03:11:08;;;;;;;13.43;9.57;;;;;;;19.03;63.87;100380.03;5075600;28;20209;-69
2021/07/25 03:13:34;;;;;;;11.60;9.17;;;;;;;19.08;63.60;100385.00;5074465;28;20181;-68
2021/07/25 03:16:04;;;;;;;18.93;10.03;;;;;;;19.02;63.71;100378.31;5057719;28;20282;-68
2021/07/25 03:18:30;;;;;;;14.73;9.13;;;;;;;18.98;64.09;100385.03;5074740;28;20369;-69
2021/07/25 03:20:56;;;;;;;11.87;8.90;;;;;;;18.96;64.02;100395.13;5075571;28;20206;-68
2021/07/25 03:23:21;;;;;;;13.63;9.30;;;;;;;18.86;64.68;100390.72;5075303;28;20175;-67
2021/07/25 03:25:46;;;;;;;16.40;9.87;;;;;;;18.89;64.68;100388.56;5075253;28;20178;-67
2021/07/25 03:28:12;;;;;;;13.53;8.90;;;;;;;18.89;64.75;100383.16;5074020;28;20182;-68
2021/07/25 03:30:37;;;;;;;13.90;10.23;;;;;;;18.82;65.07;100382.06;5075997;28;20179;-68
2021/07/25 03:33:02;;;;;;;13.60;9.73;;;;;;;18.80;65.08;100384.03;5075109;28;20236;-68
2021/07/25 03:35:28;;;;;;;14.23;9.33;;;;;;;18.65;65.93;100386.34;5075120;28;20198;-68
2021/07/25 03:37:53;;;;;;;15.40;9.57;;;;;;;18.80;65.58;100389.44;5075053;28;20178;-68
2021/07/25 03:40:24;;;;;;;12.70;9.43;;;;;;;18.79;65.50;100385.03;5073547;28;20214;-67
2021/07/25 03:42:49;;;;;;;14.40;10.00;;;;;;;18.65;66.74;100383.66;5075314;28;20167;-68
2021/07/25 03:45:14;;;;;;;13.47;9.27;;;;;;;18.73;65.81;100383.78;5075179;28;20209;-68
2021/07/25 03:47:40;;;;;;;12.43;10.57;;;;;;;18.80;65.78;100384.03;5075017;28;20219;-68
2021/07/25 03:50:05;;;;;;;13.67;9.30;;;;;;;18.81;65.67;100384.91;5075250;28;20261;-68
2021/07/25 03:52:34;;;;;;;13.07;9.07;;;;;;;18.85;65.66;100391.72;5074908;28;20191;-68
2021/07/25 03:54:59;;;;;;;13.00;10.27;;;;;;;18.69;66.71;100389.63;5073287;28;20202;-68
2021/07/25 03:57:25;;;;;;;13.33;10.17;;;;;;;18.84;65.96;100390.88;5074772;28;20552;-68
2021/07/25 03:59:50;;;;;;;13.03;10.07;;;;;;;18.87;65.97;100378.91;5073393;28;20202;-69
2021/07/25 04:02:15;;;;;;;12.30;10.30;;;;;;;18.74;66.42;100388.19;5073605;28;20175;-68
2021/07/25 04:04:40;;;;;;;17.27;10.47;;;;;;;18.85;66.03;100389.88;5074621;28;20175;-68
2021/07/25 04:07:06;;;;;;;15.37;9.80;;;;;;;18.92;65.95;100392.84;5074444;28;20222;-68
2021/07/25 04:09:31;;;;;;;14.30;10.93;;;;;;;18.95;65.88;100398.81;5075444;28;20662;-68
2021/07/25 04:11:56;;;;;;;17.17;9.93;;;;;;;19.00;65.95;100399.25;5073244;28;20186;-68
2021/07/25 04:14:22;;;;;;;15.00;10.53;;;;;;;19.00;65.57;100401.09;5074180;28;20178;-68
2021/07/25 04:16:48;;;;;;;13.17;9.97;;;;;;;19.04;65.73;100397.09;5072965;28;20214;-68
2021/07/25 04:19:13;;;;;;;16.47;10.27;;;;;;;19.03;65.81;100388.13;5056164;28;20671;-69
2021/07/25 04:21:39;;;;;;;14.67;10.33;;;;;;;19.03;65.78;100395.41;5074581;28;20178;-68
2021/07/25 04:24:04;;;;;;;13.87;9.70;;;;;;;18.93;66.70;100397.25;5074364;28;20655;-68
2021/07/25 04:26:29;;;;;;;16.10;10.67;;;;;;;19.13;65.99;100392.66;5074235;28;20277;-69
2021/07/25 04:28:55;;;;;;;12.13;10.07;;;;;;;19.26;65.52;100390.47;5074825;28;20252;-69
2021/07/25 04:31:20;;;;;;;13.80;10.17;;;;;;;19.28;65.11;100393.88;5074643;28;20224;-68
2021/07/25 04:33:50;;;;;;;14.50;10.27;;;;;;;19.28;65.42;100407.41;5074355;28;20205;-69
2021/07/25 04:36:24;;;;;;;18.53;10.37;;;;;;;19.37;65.25;100409.25;5074454;28;20191;-68
2021/07/25 04:38:49;;;;;;;13.17;9.97;;;;;;;19.38;65.30;100410.97;5074061;28;20202;-68
2021/07/25 04:41:15;;;;;;;19.37;10.40;;;;;;;19.49;64.68;100407.22;5072649;28;20551;-69
2021/07/25 04:43:40;;;;;;;14.17;10.60;;;;;;;19.60;64.65;100409.75;5072859;28;20185;-68
2021/07/25 04:46:17;;;;;;;12.47;10.03;;;;;;;19.59;64.40;100408.03;5074040;28;20163;-68
2021/07/25 04:48:49;;;;;;;14.77;9.53;;;;;;;19.66;64.69;100415.41;5072367;28;20197;-68
2021/07/25 04:51:16;;;;;;;14.27;10.57;;;;;;;19.62;64.81;100408.59;5073677;28;20178;-68
2021/07/25 04:53:42;;;;;;;12.77;9.77;;;;;;;19.65;64.55;100404.75;5073791;28;20622;-68
2021/07/25 04:56:10;;;;;;;17.70;10.97;;;;;;;19.62;64.66;100403.19;5073667;28;20604;-68
2021/07/25 04:58:53;;;;;;;14.27;10.03;;;;;;;19.61;64.98;100401.47;5072497;28;20191;-68
2021/07/25 05:01:37;;;;;;;13.77;10.37;;;;;;;19.77;64.16;100405.41;5056107;28;20206;-68
2021/07/25 05:04:04;;;;;;;11.47;9.20;;;;;;;19.76;64.34;100401.00;5073411;28;20201;-68
2021/07/25 05:06:33;;;;;;;16.17;10.87;;;;;;;19.70;64.69;100410.59;5072353;28;20351;-68
2021/07/25 05:08:58;;;;;;;14.60;10.53;;;;;;;19.70;65.06;100407.00;5073285;28;20253;-68
2021/07/25 05:11:25;;;;;;;18.43;9.90;;;;;;;19.74;64.72;100408.44;5073535;28;20567;-68
2021/07/25 05:13:52;;;;;;;11.83;9.50;;;;;;;19.94;63.93;100401.88;5073324;28;20269;-68
2021/07/25 05:16:26;;;;;;;10.93;9.37;;;;;;;19.83;64.38;100416.50;5072359;28;20224;-68
2021/07/25 05:19:16;;;;;;;16.27;10.83;;;;;;;19.69;65.28;100408.84;5073133;28;20240;-68
2021/07/25 05:21:43;;;;;;;19.10;10.97;;;;;;;19.87;64.61;100409.75;5072437;28;20175;-68
2021/07/25 05:24:09;;;;;;;15.87;10.47;;;;;;;19.78;65.20;100412.53;5071692;28;20214;-68
2021/07/25 05:26:36;;;;;;;19.30;10.63;;;;;;;19.88;64.77;100402.50;5071900;28;20258;-68
2021/07/25 05:29:01;;;;;;;16.13;9.93;;;;;;;19.78;65.84;100412.53;5072948;28;20244;-68
2021/07/25 05:31:31;;;;;;;16.67;10.50;;;;;;;19.83;65.33;100412.94;5073329;28;20179;-68
2021/07/25 05:33:56;;;;;;;16.07;10.23;;;;;;;20.00;64.75;100412.09;5073002;28;20175;-68
2021/07/25 05:36:21;;;;;;;14.43;10.07;;;;;;;20.05;64.64;100419.78;5072829;28;20694;-68
2021/07/25 05:38:47;;;;;;;16.13;9.73;;;;;;;20.12;64.19;100413.63;5073458;28;20205;-68
2021/07/25 05:41:12;;;;;;;15.63;10.13;;;;;;;20.40;63.29;100417.13;5073114;28;20178;-68
2021/07/25 05:43:37;;;;;;;15.53;10.30;;;;;;;20.25;63.97;100421.38;5073219;28;20709;-68
2021/07/25 05:46:03;;;;;;;16.77;9.70;;;;;;;20.23;64.16;100423.38;5073377;28;20176;-68
2021/07/25 05:48:28;;;;;;;14.33;10.13;;;;;;;20.21;64.35;100419.97;5072999;28;20198;-69
2021/07/25 05:50:53;;;;;;;12.47;9.43;;;;;;;20.17;64.80;100419.44;5073154;28;20183;-68
2021/07/25 05:53:18;;;;;;;11.33;9.13;;;;;;;20.40;63.62;100408.16;5072740;28;20598;-68
2021/07/25 05:55:44;;;;;;;17.83;9.93;;;;;;;20.28;64.58;100419.19;5072831;28;20217;-68
2021/07/25 05:58:09;;;;;;;13.13;9.40;;;;;;;20.43;63.94;100413.25;5072764;28;20182;-68
2021/07/25 06:00:34;;;;;;;17.23;9.53;;;;;;;20.50;63.58;100415.22;5072210;28;20179;-68
2021/07/25 06:03:03;;;;;;;12.37;10.00;;;;;;;20.36;64.36;100413.00;5072973;28;20175;-68
2021/07/25 06:05:37;;;;;;;17.67;10.07;;;;;;;20.41;63.56;100423.41;5071942;28;20167;-68
2021/07/25 06:08:07;;;;;;;17.13;10.07;;;;;;;20.42;64.05;100423.25;5074149;28;20178;-68
2021/07/25 06:10:34;;;;;;;16.00;9.63;;;;;;;20.50;63.74;100420.66;5076084;28;20589;-69
2021/07/25 06:13:02;;;;;;;17.57;10.30;;;;;;;20.45;63.35;100416.69;5083811;28;20186;-69
2021/07/25 06:15:29;;;;;;;12.37;10.23;;;;;;;20.62;63.52;100410.41;5082064;28;20675;-69
2021/07/25 06:17:55;;;;;;;14.73;10.00;;;;;;;20.65;63.09;100412.81;5072119;28;20256;-69
2021/07/25 06:20:20;;;;;;;14.33;9.63;;;;;;;20.53;63.40;100419.47;5071658;28;20201;-69
2021/07/25 06:22:51;;;;;;;15.10;9.93;;;;;;;20.58;63.31;100406.31;5072800;28;20570;-68
2021/07/25 06:25:20;;;;;;;14.87;10.30;;;;;;;20.55;63.90;100412.91;5071627;28;20197;-68
2021/07/25 06:27:46;;;;;;;15.23;10.43;;;;;;;20.49;64.20;100413.53;5072542;28;20175;-68
2021/07/25 06:30:12;;;;;;;13.50;10.00;;;;;;;20.50;64.35;100425.22;5072440;28;20199;-69
2021/07/25 06:33:03;;;;;;;15.70;9.77;;;;;;;20.72;63.68;100419.31;5072444;28;20248;-69
2021/07/25 06:35:31;;;;;;;19.97;10.17;;;;;;;20.71;63.61;100416.75;5071166;28;20201;-69
2021/07/25 06:38:02;;;;;;;13.17;10.13;;;;;;;20.66;64.29;100414.50;5076112;28;20175;-69
2021/07/25 06:40:28;;;;;;;14.13;10.27;;;;;;;20.87;63.69;100417.75;5076392;28;20172;-68
2021/07/25 06:42:55;;;;;;;12.20;9.53;;;;;;;20.95;63.05;100419.69;5076045;28;20186;-69
2021/07/25 06:45:20;;;;;;;15.47;9.97;;;;;;;20.87;63.40;100417.75;5074889;28;20171;-69
2021/07/25 06:47:47;;;;;;;17.73;10.10;;;;;;;20.83;63.66;100412.81;5075887;28;20229;-69
2021/07/25 06:50:13;;;;;;;14.13;9.97;;;;;;;20.84;64.18;100409.94;5075931;28;20608;-69
2021/07/25 06:52:39;;;;;;;20.47;9.67;;;;;;;21.02;63.36;100414.47;5074562;28;20223;-67
2021/07/25 06:55:06;;;;;;;13.87;9.70;;;;;;;21.00;63.48;100422.75;5074564;28;20647;-69
2021/07/25 06:57:32;;;;;;;15.10;9.10;;;;;;;21.50;61.65;100424.81;5075636;28;20186;-67
2021/07/25 06:59:57;;;;;;;15.37;10.60;;;;;;;21.49;61.36;100426.66;5076383;28;20195;-67
2021/07/25 07:02:22;;;;;;;18.60;10.63;;;;;;;21.77;61.12;100426.47;5075994;28;20174;-69
2021/07/25 07:04:47;;;;;;;15.53;9.70;;;;;;;21.61;61.76;100429.97;5074861;28;20563;-68
2021/07/25 07:07:13;;;;;;;12.47;9.80;;;;;;;21.71;61.59;100435.28;5075579;28;20177;-70
2021/07/25 07:09:38;;;;;;;17.17;9.40;;;;;;;21.77;61.14;100432.75;5075655;28;20260;-69
2021/07/25 07:12:04;;;;;;;14.70;10.10;;;;;;;21.79;60.65;100435.31;5075479;28;20179;-68
2021/07/25 07:14:29;;;;;;;11.57;9.13;;;;;;;21.83;60.84;100439.41;5075723;28;20179;-69
2021/07/25 07:16:54;;;;;;;10.87;9.00;;;;;;;22.04;59.79;100439.88;5075591;28;20191;-68
2021/07/25 07:19:20;;;;;;;13.23;9.67;;;;;;;21.98;61.11;100443.22;5075454;28;20242;-68
2021/07/25 07:21:45;;;;;;;17.27;9.97;;;;;;;21.91;61.29;100438.56;5075311;28;20179;-68
2021/07/25 07:24:10;;;;;;;12.57;9.50;;;;;;;22.17;60.41;100439.41;5075259;28;20186;-68
2021/07/25 07:26:36;;;;;;;11.03;9.13;;;;;;;22.28;60.82;100433.63;5075438;28;20179;-68
2021/07/25 07:29:01;;;;;;;13.90;10.30;;;;;;;22.26;60.41;100443.81;5075308;28;20248;-68
2021/07/25 07:31:26;;;;;;;11.80;9.33;;;;;;;22.27;60.11;100439.25;5075539;28;20182;-70
2021/07/25 07:33:52;;;;;;;14.07;8.77;;;;;;;22.57;59.99;100437.78;5058826;28;20182;-68
2021/07/25 07:36:17;;;;;;;16.50;8.93;;;;;;;22.47;59.74;100435.22;5077669;28;20221;-68
2021/07/25 07:38:42;;;;;;;12.30;8.93;;;;;;;22.84;59.07;100432.06;5075162;28;20198;-69
2021/07/25 07:41:07;;;;;;;15.03;9.37;;;;;;;23.03;58.78;100436.28;5075250;28;20183;-69
2021/07/25 07:43:33;;;;;;;12.70;9.43;;;;;;;23.25;56.33;100427.44;5074312;28;20174;-68
2021/07/25 07:45:59;;;;;;;12.80;8.70;;;;;;;23.43;55.58;100427.25;5073635;28;20181;-69
2021/07/25 07:48:25;;;;;;;14.10;8.97;;;;;;;23.50;56.01;100435.56;5074315;28;20245;-68
2021/07/25 07:50:50;;;;;;;11.33;8.90;;;;;;;23.74;55.21;100435.50;5074798;28;20178;-68
2021/07/25 07:53:18;;;;;;;12.20;8.70;;;;;;;23.64;56.51;100433.00;5075037;28;20220;-67
2021/07/25 07:55:44;;;;;;;12.53;8.53;;;;;;;24.09;56.15;100436.88;5074729;28;20671;-68
2021/07/25 07:58:09;;;;;;;10.73;8.73;;;;;;;24.03;55.75;100432.16;5074905;28;20299;-68
2021/07/25 08:00:34;;;;;;;12.87;8.40;;;;;;;24.41;52.64;100432.31;5056570;28;20175;-68
2021/07/25 08:02:59;;;;;;;12.73;8.10;;;;;;;24.26;53.42;100430.34;5074856;28;20206;-69
2021/07/25 08:05:25;;;;;;;12.43;7.97;;;;;;;24.56;53.45;100431.38;5074548;28;20175;-69
2021/07/25 08:07:50;;;;;;;13.33;8.00;;;;;;;24.39;54.12;100424.31;5074394;28;20731;-68
2021/07/25 08:10:16;;;;;;;11.17;8.70;;;;;;;24.37;54.02;100423.66;5074167;28;20209;-69
2021/07/25 08:12:41;;;;;;;10.40;7.77;;;;;;;24.36;53.90;100421.94;5073216;28;20187;-69
2021/07/25 08:15:09;;;;;;;10.47;8.33;;;;;;;24.38;53.65;100422.63;5072859;28;20182;-69
2021/07/25 08:17:35;;;;;;;13.07;8.23;;;;;;;24.67;53.25;100430.09;5074212;28;20182;-69
2021/07/25 08:20:00;;;;;;;12.43;7.87;;;;;;;24.85;52.67;100419.69;5074233;28;20194;-69
2021/07/25 08:22:26;;;;;;;12.97;8.13;;;;;;;24.78;52.50;100426.06;5073281;28;20232;-69
2021/07/25 08:24:51;;;;;;;9.93;7.63;;;;;;;24.78;51.92;100409.72;5074592;28;20170;-68
2021/07/25 08:27:16;;;;;;;10.50;7.87;;;;;;;24.92;51.52;100423.41;5074389;28;20189;-69
2021/07/25 08:29:43;;;;;;;11.67;7.43;;;;;;;24.85;51.26;100421.56;5073130;28;20199;-69
2021/07/25 08:32:09;;;;;;;11.03;7.43;;;;;;;25.23;50.57;100423.31;5074429;28;20229;-69
2021/07/25 08:34:34;;;;;;;13.47;7.73;;;;;;;25.31;51.72;100421.56;5074445;28;20186;-68
2021/07/25 08:37:00;;;;;;;11.93;7.30;;;;;;;25.14;52.17;100420.84;5073611;28;20218;-69
2021/07/25 08:39:26;;;;;;;11.37;7.83;;;;;;;25.24;50.15;100418.69;5055930;28;20667;-68
2021/07/25 08:41:58;;;;;;;14.93;8.07;;;;;;;25.32;50.34;100415.91;5073816;28;20183;-68
2021/07/25 08:44:52;;;;;;;14.97;7.60;;;;;;;25.43;48.69;100417.31;5073685;28;20175;-69
2021/07/25 08:47:36;;;;;;;14.40;8.27;;;;;;;25.54;49.28;100408.63;5074069;28;20158;-69
2021/07/25 08:50:07;;;;;;;13.87;8.20;;;;;;;25.59;47.86;100417.13;5073949;28;20194;-69
2021/07/25 08:52:43;;;;;;;10.43;7.13;;;;;;;25.52;48.72;100417.03;5074171;28;20238;-69
2021/07/25 08:55:14;;;;;;;10.40;7.73;;;;;;;25.98;47.80;100418.72;5072471;28;20159;-69
2021/07/25 08:57:43;;;;;;;10.37;7.67;;;;;;;25.66;48.42;100417.25;5072654;28;20167;-69
2021/07/25 09:00:11;;;;;;;10.70;7.37;;;;;;;25.66;47.96;100419.97;5072656;28;20664;-69
2021/07/25 09:02:36;;;;;;;12.87;7.80;;;;;;;26.06;46.96;100421.38;5073692;28;20526;-69
2021/07/25 09:05:03;;;;;;;8.77;7.23;;;;;;;26.05;47.58;100425.16;5072229;28;20182;-69
2021/07/25 09:07:32;;;;;;;12.33;8.07;;;;;;;26.09;46.94;100418.25;5072153;28;20261;-69
2021/07/25 09:10:04;;;;;;;9.80;7.10;;;;;;;26.51;47.23;100417.50;5073110;28;20260;-69
2021/07/25 09:12:30;;;;;;;11.10;7.27;;;;;;;26.32;46.26;100420.81;5072328;28;20218;-69
2021/07/25 09:15:01;;;;;;;14.27;7.97;;;;;;;26.17;45.55;100409.94;5073198;28;20186;-69
2021/07/25 09:17:27;;;;;;;10.30;7.10;;;;;;;26.21;47.56;100415.84;5073504;28;20174;-69
2021/07/25 09:20:10;;;;;;;10.73;7.57;;;;;;;26.43;47.58;100413.00;5073193;28;20187;-69
2021/07/25 09:22:38;;;;;;;11.57;7.60;;;;;;;26.50;46.81;100415.81;5073454;28;20236;-69
2021/07/25 09:25:04;;;;;;;11.77;7.60;;;;;;;26.67;46.45;100411.75;5073274;28;20167;-69
2021/07/25 09:27:29;;;;;;;8.43;6.80;;;;;;;26.75;45.24;100408.03;5072229;28;20249;-68
2021/07/25 09:29:54;;;;;;;9.27;6.93;;;;;;;26.59;45.69;100398.22;5060949;28;20191;-69
2021/07/25 09:32:21;;;;;;;12.50;7.53;;;;;;;26.54;45.08;100403.44;5076879;28;20178;-68
2021/07/25 09:34:50;;;;;;;10.00;6.97;;;;;;;26.98;45.56;100403.22;5073445;28;20167;-68
2021/07/25 09:37:16;;;;;;;9.07;6.97;;;;;;;27.12;44.47;100398.69;5078643;28;20207;-69
2021/07/25 09:39:44;;;;;;;12.13;7.33;;;;;;;27.36;44.13;100400.13;5080505;28;20657;-68
2021/07/25 09:42:10;;;;;;;14.03;6.83;;;;;;;26.91;43.36;100395.97;5075323;28;20192;-68
2021/07/25 09:44:49;;;;;;;14.57;7.20;;;;;;;26.98;43.16;100397.75;5072995;28;20171;-68
2021/07/25 09:47:29;;;;;;;12.37;8.00;;;;;;;27.06;44.11;100403.06;5072032;28;20252;-68
2021/07/25 09:49:56;;;;;;;14.33;7.80;;;;;;;27.17;42.48;100389.91;5073097;28;20324;-69
2021/07/25 09:52:35;;;;;;;8.00;6.83;;;;;;;27.33;42.61;100395.91;5071605;28;20163;-69
2021/07/25 09:55:02;;;;;;;14.03;7.17;;;;;;;27.24;43.51;100390.78;5073004;28;20531;-69
2021/07/25 09:57:30;;;;;;;10.20;7.03;;;;;;;27.17;41.84;100382.53;5073103;28;20190;-69
2021/07/25 09:59:57;;;;;;;11.83;7.50;;;;;;;27.02;42.29;100381.75;5071453;28;20187;-69
2021/07/25 10:02:37;;;;;;;9.63;7.60;;;;;;;27.19;42.37;100391.41;5072983;28;20189;-69
2021/07/25 10:05:14;;;;;;;15.60;7.53;;;;;;;27.65;41.87;100388.13;5072721;28;20245;-69
2021/07/25 10:07:41;;;;;;;12.63;7.37;;;;;;;27.81;41.97;100381.44;5073179;28;20175;-69
2021/07/25 10:10:11;;;;;;;9.20;6.50;;;;;;;28.22;40.94;100382.22;5107464;22;20229;-69
2021/07/25 10:12:38;;;;;;;9.23;7.43;;;;;;;28.36;39.53;100385.06;5097189;28;20664;-69
2021/07/25 10:15:07;;;;;;;9.50;7.30;;;;;;;28.53;39.45;100380.84;5080020;28;20500;-69
2021/07/25 10:17:34;;;;;;;9.70;7.43;;;;;;;28.75;38.59;100374.13;5095847;28;20174;-69
2021/07/25 10:20:01;;;;;;;9.57;6.97;;;;;;;28.36;38.37;100365.84;5097332;28;20197;-69
2021/07/25 10:22:31;;;;;;;11.40;7.30;;;;;;;28.30;37.85;100353.81;5095901;28;20665;-69
2021/07/25 10:24:59;;;;;;;13.00;7.37;;;;;;;28.63;37.37;100365.69;5096997;28;20642;-68
2021/07/25 10:27:24;;;;;;;9.67;7.30;;;;;;;28.46;36.73;100364.38;5095953;28;20174;-69
2021/07/25 10:29:52;;;;;;;10.87;6.93;;;;;;;28.56;37.00;100375.78;5097006;28;20303;-69
2021/07/25 10:32:19;;;;;;;10.83;7.30;;;;;;;29.00;36.48;100379.88;5095435;28;20178;-69
2021/07/25 10:34:46;;;;;;;8.27;7.03;;;;;;;28.66;35.95;100375.41;5096761;28;20349;-68
2021/07/25 10:37:11;;;;;;;11.97;7.60;;;;;;;29.20;35.82;100382.59;5096635;28;20198;-68
2021/07/25 10:39:38;;;;;;;17.30;7.70;;;;;;;29.17;36.27;100383.00;5095433;28;20197;-69
2021/07/25 10:42:04;;;;;;;12.37;7.50;;;;;;;29.39;35.58;100378.97;5095065;28;20635;-68
2021/07/25 10:44:30;;;;;;;12.40;7.17;;;;;;;29.19;36.05;100378.16;5096472;28;20700;-69
2021/07/25 10:47:25;;;;;;;11.10;7.80;;;;;;;29.29;35.98;100372.22;5078264;28;20170;-69
2021/07/25 10:50:08;;;;;;;9.40;7.40;;;;;;;30.12;34.25;100376.03;5096362;28;20217;-69
2021/07/25 10:52:49;;;;;;;11.52;7.47;;;;;;;29.22;35.20;100372.22;5095329;28;20184;-68
2021/07/25 10:55:42;;;;;;;9.17;7.23;;;;;;;29.45;35.94;100369.06;5096606;28;20231;-69
2021/07/25 10:58:12;;;;;;;11.07;7.60;;;;;;;29.48;35.24;100369.47;5096309;28;20563;-69
2021/07/25 11:00:43;;;;;;;9.90;7.20;;;;;;;29.70;34.77;100366.41;5077931;28;20198;-69
2021/07/25 11:03:10;;;;;;;13.80;7.00;;;;;;;30.10;35.56;100367.97;5078066;28;20177;-70
2021/07/25 11:06:13;;;;;;;11.98;7.78;;;;;;;30.08;33.80;100348.06;5095346;28;20178;-72
2021/07/25 11:08:46;;;;;;;11.55;7.20;;;;;;;30.92;33.29;100354.31;5096262;28;20249;-69
2021/07/25 11:11:36;;;;;;;11.85;7.32;;;;;;;31.97;32.18;100358.72;5094666;28;20182;-70
2021/07/25 11:14:03;;;;;;;10.80;7.53;;;;;;;32.16;31.68;100356.75;5096355;28;20179;-69
2021/07/25 11:16:28;;;;;;;7.80;6.78;;;;;;;32.73;30.17;100364.66;5095781;28;20237;-68
2021/07/25 11:18:54;;;;;;;10.63;7.35;;;;;;;33.28;29.45;100358.81;5096114;28;20222;-69